createdAt,value
2023-01-13T00:02:22.194Z,101045.72
2023-01-13T00:05:28.119Z,101038.50
2023-01-13T00:08:30.313Z,101034.16
2023-01-13T00:11:32.857Z,101033.09
2023-01-13T00:14:36.025Z,101033.31
2023-01-13T00:17:39.614Z,101029.81
2023-01-13T00:20:43.611Z,101031.44
2023-01-13T00:23:46.562Z,101025.66
2023-01-13T00:26:49.641Z,101028.63
2023-01-13T00:29:55.686Z,101027.59
2023-01-13T00:33:00.708Z,101017.13
2023-01-13T00:36:05.738Z,101018.38
2023-01-13T00:39:08.985Z,101009.09
2023-01-13T00:42:36.841Z,101025.75
2023-01-13T00:45:38.850Z,101021.22
2023-01-13T00:48:42.489Z,101019.31
2023-01-13T00:51:45.813Z,101021.41
2023-01-13T00:54:47.973Z,101029.44
2023-01-13T00:57:50.026Z,101021.06
2023-01-13T01:00:52.420Z,101026.47
2023-01-13T01:03:56.287Z,101017.69
2023-01-13T01:06:59.611Z,101018.19
2023-01-13T01:10:02.884Z,101011.34
2023-01-13T01:13:07.517Z,101000.59
2023-01-13T01:16:15.403Z,101008.56
2023-01-13T01:19:18.799Z,101004.81
2023-01-13T01:22:21.026Z,100999.84
2023-01-13T01:25:23.738Z,100988.78
2023-01-13T01:28:25.982Z,100999.13
2023-01-13T01:31:32.584Z,100997.25
2023-01-13T01:34:34.607Z,100999.31
2023-01-13T01:37:36.640Z,100997.25
2023-01-13T01:40:41.597Z,100992.28
2023-01-13T01:44:06.840Z,100987.00
2023-01-13T01:47:18.113Z,100977.47
2023-01-13T01:50:23.558Z,100987.91
2023-01-13T01:53:29.838Z,100981.50
2023-01-13T01:56:34.017Z,100971.59
2023-01-13T01:59:37.529Z,100961.16
2023-01-13T02:02:42.021Z,100968.63
2023-01-13T02:05:44.299Z,100970.75
2023-01-13T02:08:47.478Z,100969.63
2023-01-13T02:12:26.844Z,100969.75
2023-01-13T02:15:37.462Z,100974.41
2023-01-13T02:19:09.497Z,100970.16
2023-01-13T02:22:17.723Z,100961.09
2023-01-13T02:25:59.857Z,100967.09
2023-01-13T02:29:58.048Z,100970.81
2023-01-13T02:33:07.160Z,100960.16
2023-01-13T02:36:43.643Z,100957.38
2023-01-13T02:39:51.665Z,100957.66
2023-01-13T02:43:57.507Z,100950.22
2023-01-13T02:47:07.324Z,100949.09
2023-01-13T02:50:17.517Z,100954.06
2023-01-13T02:53:30.704Z,100948.44
2023-01-13T02:56:39.816Z,100945.78
2023-01-13T02:59:43.007Z,100943.28
2023-01-13T03:02:45.410Z,100940.50
2023-01-13T03:05:53.848Z,100946.50
2023-01-13T03:09:15.445Z,100939.97
2023-01-13T03:12:40.378Z,100940.72
2023-01-13T03:16:39.995Z,100932.66
2023-01-13T03:19:53.087Z,100916.72
2023-01-13T03:23:17.753Z,100936.91
2023-01-13T03:26:25.734Z,100935.97
2023-01-13T03:29:37.015Z,100935.53
2023-01-13T03:32:43.971Z,100928.63
2023-01-13T03:35:50.827Z,100925.28
2023-01-13T03:39:05.362Z,100926.34
2023-01-13T03:42:17.390Z,100917.69
2023-01-13T03:45:20.513Z,100914.34
2023-01-13T03:48:25.234Z,100915.59
2023-01-13T03:51:33.785Z,100908.56
2023-01-13T03:54:45.396Z,100920.22
2023-01-13T03:57:59.058Z,100910.41
2023-01-13T04:01:10.631Z,100903.09
2023-01-13T04:04:30.947Z,100918.16
2023-01-13T04:08:06.909Z,100920.75
2023-01-13T04:11:19.802Z,100920.13
2023-01-13T04:14:23.769Z,100922.09
2023-01-13T04:17:26.125Z,100917.44
2023-01-13T04:20:28.678Z,100904.69
2023-01-13T04:23:30.956Z,100910.31
2023-01-13T04:26:32.886Z,100927.03
2023-01-13T04:29:35.465Z,100929.63
2023-01-13T04:32:37.593Z,100931.69
2023-01-13T04:35:39.994Z,100916.59
2023-01-13T04:38:42.947Z,100919.72
2023-01-13T04:41:57.783Z,100933.25
2023-01-13T04:44:59.850Z,100932.44
2023-01-13T04:48:04.682Z,100933.59
2023-01-13T04:51:10.804Z,100927.44
2023-01-13T04:54:12.965Z,100921.56
2023-01-13T04:57:16.143Z,100927.34
2023-01-13T05:00:21.058Z,100927.78
2023-01-13T05:03:24.862Z,100931.72
2023-01-13T05:06:26.916Z,100933.16
2023-01-13T05:09:29.046Z,100932.75
2023-01-13T05:12:50.759Z,100924.69
2023-01-13T05:16:11.526Z,100936.69
2023-01-13T05:19:13.804Z,100939.75
2023-01-13T05:22:34.777Z,100927.19
2023-01-13T05:25:41.862Z,100944.31
2023-01-13T05:28:48.603Z,100953.00
2023-01-13T05:31:52.081Z,100956.66
2023-01-13T05:34:55.912Z,100951.97
2023-01-13T05:37:58.334Z,100941.63
2023-01-13T05:41:19.202Z,100944.94
2023-01-13T05:44:21.461Z,100944.44
2023-01-13T05:47:23.543Z,100943.91
2023-01-13T05:50:25.813Z,100946.59
2023-01-13T05:53:28.808Z,100956.41
2023-01-13T05:56:31.308Z,100949.50
2023-01-13T05:59:33.247Z,100950.31
2023-01-13T06:02:36.239Z,100948.66
2023-01-13T06:05:38.610Z,100954.06
2023-01-13T06:08:41.584Z,100946.50
2023-01-13T06:11:43.816Z,100956.22
2023-01-13T06:14:46.071Z,100947.53
2023-01-13T06:17:48.951Z,100952.22
2023-01-13T06:20:53.828Z,100961.38
2023-01-13T06:23:56.640Z,100958.31
2023-01-13T06:26:58.874Z,100953.66
2023-01-13T06:30:01.289Z,100947.44
2023-01-13T06:33:09.942Z,100965.66
2023-01-13T06:36:19.583Z,100952.91
2023-01-13T06:39:27.875Z,100961.72
2023-01-13T06:42:55.614Z,100962.66
2023-01-13T06:45:58.265Z,100961.38
2023-01-13T06:49:03.011Z,100963.59
2023-01-13T06:52:08.062Z,100963.16
2023-01-13T06:55:10.694Z,100967.94
2023-01-13T06:58:13.570Z,100964.19
2023-01-13T07:01:18.651Z,100970.59
2023-01-13T07:04:21.255Z,100964.78
2023-01-13T07:07:23.784Z,100972.44
2023-01-13T07:10:46.204Z,100973.59
2023-01-13T07:14:28.578Z,100953.25
2023-01-13T07:17:52.686Z,100966.66
2023-01-13T07:21:04.619Z,100974.09
2023-01-13T07:24:11.586Z,100950.72
2023-01-13T07:27:22.561Z,100944.00
2023-01-13T07:30:45.172Z,100975.13
2023-01-13T07:33:59.957Z,100964.56
2023-01-13T07:37:05.218Z,100982.44
2023-01-13T07:40:10.683Z,100962.88
2023-01-13T07:43:38.794Z,100962.94
2023-01-13T07:46:43.715Z,100981.75
2023-01-13T07:58:14.819Z,100993.47
2023-01-13T08:04:53.571Z,101010.63
2023-01-13T08:08:18.171Z,100976.41
2023-01-13T08:11:34.391Z,101008.19
2023-01-13T08:14:37.017Z,100999.75
2023-01-13T08:17:45.286Z,101001.97
2023-01-13T08:21:06.282Z,101017.88
2023-01-13T08:24:18.954Z,100991.50
2023-01-13T08:27:28.797Z,100998.34
2023-01-13T08:30:43.461Z,101020.00
2023-01-13T08:33:47.259Z,101021.59
2023-01-13T08:36:58.963Z,101012.78
2023-01-13T08:40:11.691Z,101009.06
2023-01-13T08:43:24.377Z,101011.41
2023-01-13T08:46:38.410Z,101004.56
2023-01-13T08:49:44.613Z,101004.91
2023-01-13T08:52:56.720Z,101037.88
2023-01-13T08:56:24.510Z,101019.88
2023-01-13T08:59:34.210Z,101029.94
2023-01-13T09:07:01.303Z,101035.19
2023-01-13T09:15:11.174Z,101029.75
2023-01-13T09:19:05.548Z,101034.19
2023-01-13T09:31:09.166Z,101007.63
2023-01-13T09:34:47.300Z,101012.56
2023-01-13T09:38:01.629Z,101024.97
2023-01-13T09:41:24.687Z,100993.72
2023-01-13T09:44:45.526Z,101027.84
2023-01-13T09:48:17.090Z,101001.41
2023-01-13T09:55:55.212Z,101023.63
2023-01-13T09:59:16.115Z,101004.78
2023-01-13T10:02:41.194Z,101025.59
2023-01-13T10:10:01.373Z,100991.22
2023-01-13T10:13:30.889Z,101005.28
2023-01-13T10:16:50.841Z,100998.34
2023-01-13T10:20:26.359Z,100982.00
2023-01-13T10:23:56.362Z,101017.81
2023-01-13T10:27:13.442Z,101007.13
2023-01-13T10:30:19.811Z,101014.09
2023-01-13T10:33:30.919Z,101017.28
2023-01-13T10:36:41.420Z,101008.03
2023-01-13T10:39:48.251Z,101008.28
2023-01-13T10:43:12.231Z,101004.81
2023-01-13T10:46:31.484Z,100974.78
2023-01-13T10:49:39.341Z,100998.25
2023-01-13T10:53:18.033Z,100956.78
2023-01-13T10:56:30.099Z,100958.06
2023-01-13T11:19:05.135Z,100946.75
2023-01-13T11:22:32.834Z,100927.19
2023-01-13T11:26:24.294Z,100928.00
2023-01-13T11:30:30.033Z,100894.34
2023-01-13T11:34:43.220Z,100928.56
2023-01-13T11:57:04.672Z,100908.34
2023-01-13T12:00:53.598Z,100897.06
2023-01-13T12:09:16.393Z,100886.94
2023-01-13T12:13:23.530Z,100868.91
2023-01-13T12:17:16.911Z,100861.03
2023-01-13T12:26:00.857Z,100841.41
2023-01-13T12:30:04.771Z,100833.47
2023-01-13T12:38:34.500Z,100834.47
2023-01-13T12:42:15.830Z,100869.28
2023-01-13T12:45:53.247Z,100870.34
2023-01-13T12:49:50.587Z,100838.50
2023-01-13T12:53:39.599Z,100837.94
2023-01-13T12:56:46.962Z,100828.03
2023-01-13T13:00:25.994Z,100855.28
2023-01-13T13:04:36.776Z,100834.03
2023-01-13T13:07:52.867Z,100842.19
2023-01-13T13:11:19.980Z,100855.59
2023-01-13T13:14:46.922Z,100867.19
2023-01-13T13:18:31.861Z,100863.75
2023-01-13T13:22:07.865Z,100867.41
2023-01-13T13:25:31.417Z,100869.16
2023-01-13T13:29:00.251Z,100868.56
2023-01-13T13:32:18.836Z,100871.44
2023-01-13T13:35:41.310Z,100866.94
2023-01-13T13:39:22.236Z,100861.75
2023-01-13T13:42:59.921Z,100853.28
2023-01-13T13:46:20.850Z,100839.09
2023-01-13T13:49:54.659Z,100862.47
2023-01-13T13:53:11.290Z,100840.41
2023-01-13T13:56:24.462Z,100831.59
2023-01-13T13:59:48.829Z,100849.47
2023-01-13T14:02:54.233Z,100861.28
2023-01-13T14:06:03.752Z,100880.91
2023-01-13T14:09:17.370Z,100870.34
2023-01-13T14:12:26.358Z,100886.00
2023-01-13T14:15:38.999Z,100879.19
2023-01-13T14:18:48.289Z,100882.94
2023-01-13T14:21:50.712Z,100883.75
2023-01-13T14:24:59.120Z,100872.41
2023-01-13T14:28:30.559Z,100884.69
2023-01-13T14:31:34.467Z,100876.66
2023-01-13T14:34:38.298Z,100878.81
2023-01-13T14:37:42.913Z,100883.28
2023-01-13T14:40:47.521Z,100882.78
2023-01-13T14:43:53.846Z,100869.13
2023-01-13T14:47:03.447Z,100894.25
2023-01-13T14:50:08.236Z,100863.63
2023-01-13T14:53:32.439Z,100888.81
2023-01-13T14:56:50.123Z,100870.56
2023-01-13T14:59:59.470Z,100877.28
2023-01-13T15:03:08.038Z,100859.63
2023-01-13T15:06:28.654Z,100860.44
2023-01-13T15:09:42.987Z,100857.72
2023-01-13T15:12:50.107Z,100884.38
2023-01-13T15:15:57.094Z,100885.09
2023-01-13T15:19:28.639Z,100881.56
2023-01-13T15:22:31.454Z,100885.22
2023-01-13T15:25:39.612Z,100845.59
2023-01-13T15:28:43.542Z,100859.63
2023-01-13T15:31:50.985Z,100882.13
2023-01-13T15:35:00.840Z,100854.66
2023-01-13T15:38:06.756Z,100849.63
2023-01-13T15:41:15.363Z,100881.31
2023-01-13T15:44:37.649Z,100885.31
2023-01-13T15:47:45.657Z,100890.03
2023-01-13T15:50:51.212Z,100849.38
2023-01-13T15:54:00.731Z,100865.97
2023-01-13T15:57:04.170Z,100893.59
2023-01-13T16:00:16.362Z,100904.66
2023-01-13T16:03:18.695Z,100899.47
2023-01-13T16:06:33.097Z,100900.13
2023-01-13T16:09:35.837Z,100907.72
2023-01-13T16:12:39.752Z,100904.41
2023-01-13T16:15:48.365Z,100894.66
2023-01-13T16:18:54.280Z,100894.28
2023-01-13T16:21:59.910Z,100898.19
2023-01-13T16:25:02.827Z,100905.84
2023-01-13T16:28:05.187Z,100896.03
2023-01-13T16:31:23.591Z,100896.97
2023-01-13T16:34:25.849Z,100894.69
2023-01-13T16:37:31.592Z,100896.34
2023-01-13T16:40:36.964Z,100895.19
2023-01-13T16:43:39.920Z,100888.81
2023-01-13T16:46:47.928Z,100889.75
2023-01-13T16:49:50.365Z,100879.03
2023-01-13T16:52:52.850Z,100892.25
2023-01-13T16:55:55.293Z,100884.91
2023-01-13T16:59:02.806Z,100887.97
2023-01-13T17:02:11.991Z,100882.59
2023-01-13T17:05:15.193Z,100890.47
2023-01-13T17:08:18.227Z,100892.25
2023-01-13T17:11:24.514Z,100883.63
2023-01-13T17:14:29.258Z,100886.34
2023-01-13T17:17:31.756Z,100882.94
2023-01-13T17:20:34.228Z,100873.97
2023-01-13T17:23:36.700Z,100879.06
2023-01-13T17:26:44.707Z,100887.88
2023-01-13T17:29:50.322Z,100896.13
2023-01-13T17:32:53.099Z,100894.13
2023-01-13T17:35:55.242Z,100888.06
2023-01-13T17:38:58.515Z,100887.38
2023-01-13T17:42:00.677Z,100903.97
2023-01-13T17:45:03.273Z,100917.53
2023-01-13T17:48:06.513Z,100913.56
2023-01-13T17:51:12.351Z,100906.19
2023-01-13T17:54:15.970Z,100913.25
2023-01-13T17:57:18.235Z,100906.69
2023-01-13T18:00:21.570Z,100907.94
2023-01-13T18:03:23.766Z,100915.69
2023-01-13T18:06:26.487Z,100921.78
2023-01-13T18:09:29.168Z,100913.56
2023-01-13T18:12:32.178Z,100907.22
2023-01-13T18:15:34.565Z,100913.91
2023-01-13T18:18:38.405Z,100912.47
2023-01-13T18:21:58.928Z,100929.47
2023-01-13T18:25:21.840Z,100923.41
2023-01-13T18:28:24.567Z,100913.94
2023-01-13T18:31:28.382Z,100928.59
2023-01-13T18:34:33.605Z,100920.13
2023-01-13T18:37:43.290Z,100924.72
2023-01-13T18:40:47.703Z,100921.28
2023-01-13T18:43:51.903Z,100925.97
2023-01-13T18:46:56.791Z,100931.41
2023-01-13T18:49:59.801Z,100921.03
2023-01-13T18:53:02.363Z,100935.81
2023-01-13T18:56:14.312Z,100925.50
2023-01-13T18:59:21.189Z,100932.84
2023-01-13T19:02:27.229Z,100940.41
2023-01-13T19:05:29.979Z,100940.66
2023-01-13T19:08:33.792Z,100943.16
2023-01-13T19:11:36.854Z,100942.72
2023-01-13T19:14:42.380Z,100935.56
2023-01-13T19:17:45.729Z,100929.47
2023-01-13T19:20:51.065Z,100946.28
2023-01-13T19:23:55.220Z,100942.91
2023-01-13T19:26:57.518Z,100952.53
2023-01-13T19:30:03.940Z,100951.25
2023-01-13T19:33:06.538Z,100957.88
2023-01-13T19:36:10.991Z,100956.19
2023-01-13T19:39:14.218Z,100964.19
2023-01-13T19:42:34.936Z,100971.66
2023-01-13T19:45:37.266Z,100970.25
2023-01-13T19:48:43.124Z,100971.75
2023-01-13T19:51:45.452Z,100983.13
2023-01-13T19:54:48.347Z,100978.75
2023-01-13T19:57:50.814Z,100996.53
2023-01-13T20:00:54.299Z,101017.63
2023-01-13T20:04:02.988Z,101022.41
2023-01-13T20:07:06.293Z,101029.97
2023-01-13T20:10:09.166Z,101024.63
2023-01-13T20:13:11.993Z,101017.34
2023-01-13T20:16:14.253Z,101021.34
2023-01-13T20:19:16.404Z,101012.69
2023-01-13T20:22:18.754Z,101003.06
2023-01-13T20:25:22.577Z,101012.50
2023-01-13T20:28:24.913Z,101010.72
2023-01-13T20:31:30.117Z,100997.84
2023-01-13T20:34:32.225Z,100999.53
2023-01-13T20:37:35.351Z,101002.25
2023-01-13T20:40:37.954Z,100999.50
2023-01-13T20:43:40.088Z,100984.28
2023-01-13T20:46:43.780Z,100989.25
2023-01-13T20:49:46.459Z,100995.13
2023-01-13T20:52:48.575Z,100992.66
2023-01-13T20:55:50.686Z,100982.00
2023-01-13T20:58:53.135Z,100993.72
2023-01-13T21:01:56.084Z,101004.22
2023-01-13T21:05:02.259Z,101020.66
2023-01-13T21:08:07.683Z,101016.16
2023-01-13T21:11:12.308Z,101009.44
2023-01-13T21:14:39.629Z,101011.53
2023-01-13T21:18:00.409Z,100991.22
2023-01-13T21:21:11.625Z,100993.81
2023-01-13T21:24:14.176Z,100981.59
2023-01-13T21:27:16.495Z,100994.47
2023-01-13T21:30:19.395Z,100982.78
2023-01-13T21:33:22.492Z,100964.50
2023-01-13T21:36:28.142Z,100971.91
2023-01-13T21:39:30.491Z,100983.59
2023-01-13T21:42:51.463Z,100979.22
2023-01-13T21:46:12.295Z,100986.78
2023-01-13T21:49:17.780Z,100990.09
2023-01-13T21:52:20.288Z,100989.38
2023-01-13T21:55:25.467Z,100984.56
2023-01-13T21:58:27.539Z,100978.97
2023-01-13T22:01:29.875Z,100970.13
2023-01-13T22:04:32.943Z,100965.88
2023-01-13T22:07:41.189Z,100970.75
2023-01-13T22:10:57.955Z,100973.78
2023-01-13T22:14:07.048Z,100977.34
2023-01-13T22:17:09.388Z,101002.59
2023-01-13T22:20:13.803Z,101026.69
2023-01-13T22:23:17.125Z,101023.69
2023-01-13T22:26:19.243Z,101039.66
2023-01-13T22:29:21.862Z,101056.41
2023-01-13T22:32:24.069Z,101040.81
2023-01-13T22:35:26.767Z,101054.31
2023-01-13T22:38:30.002Z,101057.13
2023-01-13T22:41:32.643Z,101063.63
2023-01-13T22:44:35.028Z,101067.97
2023-01-13T22:47:37.162Z,101074.72
2023-01-13T22:50:39.722Z,101080.06
2023-01-13T22:53:43.026Z,101076.84
2023-01-13T22:56:45.082Z,101088.97
2023-01-13T22:59:47.753Z,101076.78
2023-01-13T23:02:52.062Z,101074.28
2023-01-13T23:05:58.164Z,101072.63
2023-01-13T23:09:03.789Z,101059.34
2023-01-13T23:12:10.995Z,101055.22
2023-01-13T23:15:12.990Z,101032.34
2023-01-13T23:18:14.941Z,101030.69
2023-01-13T23:21:25.380Z,101019.34
2023-01-13T23:24:29.306Z,100991.28
2023-01-13T23:27:31.495Z,100985.69
2023-01-13T23:30:34.509Z,100990.06
2023-01-13T23:33:41.523Z,100989.97
2023-01-13T23:36:44.643Z,100996.69
2023-01-13T23:39:46.763Z,100997.97
2023-01-13T23:42:49.328Z,100992.28
2023-01-13T23:45:51.510Z,101000.69
2023-01-13T23:48:55.376Z,101001.28
2023-01-13T23:51:57.463Z,100995.72
2023-01-13T23:54:59.525Z,100996.78
2023-01-13T23:58:04.348Z,100997.19
